sensor_id;sensor_type;location;lat;lon;timestamp;P1;durP1;ratioP1;P2;durP2;ratioP2
22603;SDS011;11469;49.024;8.246;2022-12-18T00:01:29;151.48;;;45.83;;
22603;SDS011;11469;49.024;8.246;2022-12-18T00:03:56;162.20;;;54.28;;
22603;SDS011;11469;49.024;8.246;2022-12-18T00:06:23;222.07;;;69.32;;
22603;SDS011;11469;49.024;8.246;2022-12-18T00:08:49;165.90;;;56.83;;
22603;SDS011;11469;49.024;8.246;2022-12-18T00:11:19;180.10;;;57.28;;
22603;SDS011;11469;49.024;8.246;2022-12-18T00:13:47;141.60;;;45.47;;
22603;SDS011;11469;49.024;8.246;2022-12-18T00:16:14;151.48;;;50.72;;
22603;SDS011;11469;49.024;8.246;2022-12-18T00:18:41;147.15;;;48.67;;
22603;SDS011;11469;49.024;8.246;2022-12-18T00:21:08;170.57;;;55.30;;
22603;SDS011;11469;49.024;8.246;2022-12-18T00:23:35;136.40;;;45.78;;
22603;SDS011;11469;49.024;8.246;2022-12-18T00:26:02;143.85;;;45.67;;
22603;SDS011;11469;49.024;8.246;2022-12-18T00:28:30;153.80;;;51.03;;
22603;SDS011;11469;49.024;8.246;2022-12-18T00:33:27;124.93;;;41.10;;
22603;SDS011;11469;49.024;8.246;2022-12-18T00:35:53;132.38;;;41.88;;
22603;SDS011;11469;49.024;8.246;2022-12-18T00:38:18;143.82;;;46.67;;
22603;SDS011;11469;49.024;8.246;2022-12-18T00:40:43;168.60;;;54.08;;
22603;SDS011;11469;49.024;8.246;2022-12-18T00:43:09;164.10;;;55.25;;
22603;SDS011;11469;49.024;8.246;2022-12-18T00:45:34;145.52;;;48.28;;
22603;SDS011;11469;49.024;8.246;2022-12-18T00:48:00;153.75;;;51.10;;
22603;SDS011;11469;49.024;8.246;2022-12-18T00:50:25;165.13;;;53.95;;
22603;SDS011;11469;49.024;8.246;2022-12-18T00:52:51;154.38;;;51.47;;
22603;SDS011;11469;49.024;8.246;2022-12-18T00:55:17;162.00;;;51.78;;
22603;SDS011;11469;49.024;8.246;2022-12-18T00:57:42;127.65;;;42.95;;
22603;SDS011;11469;49.024;8.246;2022-12-18T01:00:09;149.25;;;54.50;;
22603;SDS011;11469;49.024;8.246;2022-12-18T01:02:36;126.75;;;46.10;;
22603;SDS011;11469;49.024;8.246;2022-12-18T01:05:02;129.77;;;42.63;;
22603;SDS011;11469;49.024;8.246;2022-12-18T01:07:28;126.70;;;42.35;;
22603;SDS011;11469;49.024;8.246;2022-12-18T01:09:53;130.32;;;42.00;;
22603;SDS011;11469;49.024;8.246;2022-12-18T01:12:18;130.02;;;42.78;;
22603;SDS011;11469;49.024;8.246;2022-12-18T01:14:44;138.15;;;47.55;;
22603;SDS011;11469;49.024;8.246;2022-12-18T01:17:09;131.43;;;45.20;;
22603;SDS011;11469;49.024;8.246;2022-12-18T01:19:35;134.10;;;46.75;;
22603;SDS011;11469;49.024;8.246;2022-12-18T01:22:00;121.95;;;39.72;;
22603;SDS011;11469;49.024;8.246;2022-12-18T01:24:25;143.48;;;47.35;;
22603;SDS011;11469;49.024;8.246;2022-12-18T01:26:51;133.57;;;43.50;;
22603;SDS011;11469;49.024;8.246;2022-12-18T01:29:16;124.18;;;42.50;;
22603;SDS011;11469;49.024;8.246;2022-12-18T01:31:42;130.60;;;45.47;;
22603;SDS011;11469;49.024;8.246;2022-12-18T01:34:08;131.88;;;45.85;;
22603;SDS011;11469;49.024;8.246;2022-12-18T01:36:35;152.27;;;51.92;;
22603;SDS011;11469;49.024;8.246;2022-12-18T01:39:06;138.07;;;45.22;;
22603;SDS011;11469;49.024;8.246;2022-12-18T01:41:33;115.18;;;41.45;;
22603;SDS011;11469;49.024;8.246;2022-12-18T01:49:51;138.05;;;44.95;;
22603;SDS011;11469;49.024;8.246;2022-12-18T01:52:17;114.75;;;40.58;;
22603;SDS011;11469;49.024;8.246;2022-12-18T01:54:45;121.80;;;40.72;;
22603;SDS011;11469;49.024;8.246;2022-12-18T01:57:12;119.63;;;41.60;;
22603;SDS011;11469;49.024;8.246;2022-12-18T01:59:37;125.15;;;41.13;;
22603;SDS011;11469;49.024;8.246;2022-12-18T02:02:05;125.60;;;42.20;;
22603;SDS011;11469;49.024;8.246;2022-12-18T02:04:32;130.27;;;46.72;;
22603;SDS011;11469;49.024;8.246;2022-12-18T02:07:02;131.52;;;44.00;;
22603;SDS011;11469;49.024;8.246;2022-12-18T02:09:38;123.00;;;40.88;;
22603;SDS011;11469;49.024;8.246;2022-12-18T02:12:21;123.35;;;42.72;;
22603;SDS011;11469;49.024;8.246;2022-12-18T02:14:53;128.50;;;44.72;;
22603;SDS011;11469;49.024;8.246;2022-12-18T02:17:30;114.28;;;41.58;;
22603;SDS011;11469;49.024;8.246;2022-12-18T02:22:48;114.05;;;38.85;;
22603;SDS011;11469;49.024;8.246;2022-12-18T02:28:15;109.15;;;36.95;;
22603;SDS011;11469;49.024;8.246;2022-12-18T02:30:46;119.55;;;39.45;;
22603;SDS011;11469;49.024;8.246;2022-12-18T02:33:14;116.53;;;40.60;;
22603;SDS011;11469;49.024;8.246;2022-12-18T02:35:40;114.80;;;40.10;;
22603;SDS011;11469;49.024;8.246;2022-12-18T02:38:08;111.90;;;37.38;;
22603;SDS011;11469;49.024;8.246;2022-12-18T02:40:35;116.55;;;39.63;;
22603;SDS011;11469;49.024;8.246;2022-12-18T02:43:13;120.13;;;38.67;;
22603;SDS011;11469;49.024;8.246;2022-12-18T02:45:46;108.20;;;38.08;;
22603;SDS011;11469;49.024;8.246;2022-12-18T02:48:15;123.60;;;39.60;;
22603;SDS011;11469;49.024;8.246;2022-12-18T02:50:45;116.80;;;40.70;;
22603;SDS011;11469;49.024;8.246;2022-12-18T02:53:27;108.93;;;38.35;;
22603;SDS011;11469;49.024;8.246;2022-12-18T02:59:00;107.53;;;34.97;;
22603;SDS011;11469;49.024;8.246;2022-12-18T03:01:38;105.72;;;35.25;;
22603;SDS011;11469;49.024;8.246;2022-12-18T03:04:17;113.07;;;37.95;;
22603;SDS011;11469;49.024;8.246;2022-12-18T03:06:56;109.05;;;37.08;;
22603;SDS011;11469;49.024;8.246;2022-12-18T03:09:32;99.63;;;34.55;;
22603;SDS011;11469;49.024;8.246;2022-12-18T03:12:06;107.20;;;37.13;;
22603;SDS011;11469;49.024;8.246;2022-12-18T03:15:31;105.93;;;38.30;;
22603;SDS011;11469;49.024;8.246;2022-12-18T03:17:38;94.50;;;36.72;;
22603;SDS011;11469;49.024;8.246;2022-12-18T03:20:14;98.35;;;36.00;;
22603;SDS011;11469;49.024;8.246;2022-12-18T03:25:12;93.03;;;33.38;;
22603;SDS011;11469;49.024;8.246;2022-12-18T03:27:41;102.50;;;37.55;;
22603;SDS011;11469;49.024;8.246;2022-12-18T03:30:12;100.70;;;36.35;;
22603;SDS011;11469;49.024;8.246;2022-12-18T03:32:48;95.68;;;34.30;;
22603;SDS011;11469;49.024;8.246;2022-12-18T03:35:25;97.60;;;37.40;;
22603;SDS011;11469;49.024;8.246;2022-12-18T03:37:54;99.63;;;36.65;;
22603;SDS011;11469;49.024;8.246;2022-12-18T03:40:21;97.30;;;36.08;;
22603;SDS011;11469;49.024;8.246;2022-12-18T03:43:16;94.15;;;34.63;;
22603;SDS011;11469;49.024;8.246;2022-12-18T03:46:08;97.82;;;36.08;;
22603;SDS011;11469;49.024;8.246;2022-12-18T03:48:44;78.28;;;28.67;;
22603;SDS011;11469;49.024;8.246;2022-12-18T03:51:18;93.03;;;33.95;;
22603;SDS011;11469;49.024;8.246;2022-12-18T03:54:10;98.05;;;36.70;;
22603;SDS011;11469;49.024;8.246;2022-12-18T03:56:39;104.43;;;37.03;;
22603;SDS011;11469;49.024;8.246;2022-12-18T03:59:07;97.55;;;35.20;;
22603;SDS011;11469;49.024;8.246;2022-12-18T04:01:41;101.93;;;34.10;;
22603;SDS011;11469;49.024;8.246;2022-12-18T04:04:11;93.32;;;35.50;;
22603;SDS011;11469;49.024;8.246;2022-12-18T04:06:39;92.60;;;35.65;;
22603;SDS011;11469;49.024;8.246;2022-12-18T04:09:06;110.82;;;40.05;;
22603;SDS011;11469;49.024;8.246;2022-12-18T04:11:32;93.40;;;34.20;;
22603;SDS011;11469;49.024;8.246;2022-12-18T04:13:58;103.20;;;37.60;;
22603;SDS011;11469;49.024;8.246;2022-12-18T04:16:25;103.25;;;38.95;;
22603;SDS011;11469;49.024;8.246;2022-12-18T04:18:51;102.85;;;36.63;;
22603;SDS011;11469;49.024;8.246;2022-12-18T04:21:17;104.85;;;35.83;;
22603;SDS011;11469;49.024;8.246;2022-12-18T04:23:42;101.85;;;36.05;;
22603;SDS011;11469;49.024;8.246;2022-12-18T04:26:08;99.07;;;36.00;;
22603;SDS011;11469;49.024;8.246;2022-12-18T04:28:33;99.60;;;36.13;;
22603;SDS011;11469;49.024;8.246;2022-12-18T04:30:58;93.22;;;36.13;;
22603;SDS011;11469;49.024;8.246;2022-12-18T04:33:24;97.10;;;35.90;;
22603;SDS011;11469;49.024;8.246;2022-12-18T04:35:49;105.93;;;36.03;;
22603;SDS011;11469;49.024;8.246;2022-12-18T04:38:15;107.60;;;36.35;;
22603;SDS011;11469;49.024;8.246;2022-12-18T04:40:41;100.78;;;34.72;;
22603;SDS011;11469;49.024;8.246;2022-12-18T04:43:06;113.53;;;38.35;;
22603;SDS011;11469;49.024;8.246;2022-12-18T04:45:31;104.75;;;38.08;;
22603;SDS011;11469;49.024;8.246;2022-12-18T04:47:57;104.07;;;37.85;;
22603;SDS011;11469;49.024;8.246;2022-12-18T04:50:23;110.03;;;37.00;;
22603;SDS011;11469;49.024;8.246;2022-12-18T04:52:49;105.72;;;38.15;;
22603;SDS011;11469;49.024;8.246;2022-12-18T04:55:14;109.03;;;38.58;;
22603;SDS011;11469;49.024;8.246;2022-12-18T04:57:40;98.25;;;36.38;;
22603;SDS011;11469;49.024;8.246;2022-12-18T05:00:05;99.93;;;37.60;;
22603;SDS011;11469;49.024;8.246;2022-12-18T05:02:31;95.43;;;35.83;;
22603;SDS011;11469;49.024;8.246;2022-12-18T05:04:57;103.53;;;39.40;;
22603;SDS011;11469;49.024;8.246;2022-12-18T05:07:22;113.95;;;39.63;;
22603;SDS011;11469;49.024;8.246;2022-12-18T05:09:48;111.55;;;39.28;;
22603;SDS011;11469;49.024;8.246;2022-12-18T05:12:13;106.25;;;38.97;;
22603;SDS011;11469;49.024;8.246;2022-12-18T05:14:39;101.25;;;36.60;;
22603;SDS011;11469;49.024;8.246;2022-12-18T05:17:04;93.03;;;33.15;;
22603;SDS011;11469;49.024;8.246;2022-12-18T05:19:30;97.43;;;35.35;;
22603;SDS011;11469;49.024;8.246;2022-12-18T05:21:55;104.03;;;37.63;;
22603;SDS011;11469;49.024;8.246;2022-12-18T05:24:20;99.65;;;37.05;;
22603;SDS011;11469;49.024;8.246;2022-12-18T05:26:46;104.22;;;36.38;;
22603;SDS011;11469;49.024;8.246;2022-12-18T05:29:12;112.80;;;40.65;;
22603;SDS011;11469;49.024;8.246;2022-12-18T05:31:38;101.32;;;37.28;;
22603;SDS011;11469;49.024;8.246;2022-12-18T05:34:04;95.30;;;37.15;;
22603;SDS011;11469;49.024;8.246;2022-12-18T05:36:30;99.18;;;36.92;;
22603;SDS011;11469;49.024;8.246;2022-12-18T05:38:55;95.90;;;35.40;;
22603;SDS011;11469;49.024;8.246;2022-12-18T05:41:20;106.93;;;38.15;;
22603;SDS011;11469;49.024;8.246;2022-12-18T05:43:46;104.85;;;37.65;;
22603;SDS011;11469;49.024;8.246;2022-12-18T05:46:13;105.28;;;36.97;;
22603;SDS011;11469;49.024;8.246;2022-12-18T05:48:40;103.57;;;38.15;;
22603;SDS011;11469;49.024;8.246;2022-12-18T05:51:08;103.75;;;39.22;;
22603;SDS011;11469;49.024;8.246;2022-12-18T05:53:36;96.90;;;36.85;;
22603;SDS011;11469;49.024;8.246;2022-12-18T05:56:03;95.90;;;37.22;;
22603;SDS011;11469;49.024;8.246;2022-12-18T05:58:30;92.85;;;37.15;;
22603;SDS011;11469;49.024;8.246;2022-12-18T06:00:56;108.75;;;38.22;;
22603;SDS011;11469;49.024;8.246;2022-12-18T06:03:21;107.25;;;39.75;;
22603;SDS011;11469;49.024;8.246;2022-12-18T06:05:47;107.97;;;38.28;;
22603;SDS011;11469;49.024;8.246;2022-12-18T06:08:13;95.40;;;36.88;;
22603;SDS011;11469;49.024;8.246;2022-12-18T06:10:38;101.15;;;35.38;;
22603;SDS011;11469;49.024;8.246;2022-12-18T06:13:05;103.28;;;37.30;;
22603;SDS011;11469;49.024;8.246;2022-12-18T06:15:31;102.40;;;38.85;;
22603;SDS011;11469;49.024;8.246;2022-12-18T06:17:57;113.18;;;39.13;;
22603;SDS011;11469;49.024;8.246;2022-12-18T06:20:23;115.45;;;42.13;;
22603;SDS011;11469;49.024;8.246;2022-12-18T06:22:48;116.10;;;41.60;;
22603;SDS011;11469;49.024;8.246;2022-12-18T06:25:14;109.35;;;41.75;;
22603;SDS011;11469;49.024;8.246;2022-12-18T06:27:39;116.82;;;42.20;;
22603;SDS011;11469;49.024;8.246;2022-12-18T06:30:05;119.32;;;41.28;;
22603;SDS011;11469;49.024;8.246;2022-12-18T06:32:31;122.53;;;44.78;;
22603;SDS011;11469;49.024;8.246;2022-12-18T06:34:57;109.22;;;40.40;;
22603;SDS011;11469;49.024;8.246;2022-12-18T06:37:22;119.00;;;42.38;;
22603;SDS011;11469;49.024;8.246;2022-12-18T06:39:51;117.55;;;44.25;;
22603;SDS011;11469;49.024;8.246;2022-12-18T06:42:19;131.60;;;43.63;;
22603;SDS011;11469;49.024;8.246;2022-12-18T06:44:45;115.60;;;42.45;;
22603;SDS011;11469;49.024;8.246;2022-12-18T06:47:10;111.47;;;39.78;;
22603;SDS011;11469;49.024;8.246;2022-12-18T06:49:35;108.20;;;39.70;;
22603;SDS011;11469;49.024;8.246;2022-12-18T06:52:01;118.07;;;40.80;;
22603;SDS011;11469;49.024;8.246;2022-12-18T06:54:26;120.40;;;43.08;;
22603;SDS011;11469;49.024;8.246;2022-12-18T06:56:51;110.13;;;40.00;;
22603;SDS011;11469;49.024;8.246;2022-12-18T06:59:17;106.13;;;39.67;;
22603;SDS011;11469;49.024;8.246;2022-12-18T07:01:42;105.20;;;37.65;;
22603;SDS011;11469;49.024;8.246;2022-12-18T07:04:08;114.60;;;39.72;;
22603;SDS011;11469;49.024;8.246;2022-12-18T07:06:33;106.60;;;38.22;;
22603;SDS011;11469;49.024;8.246;2022-12-18T07:08:59;115.47;;;39.10;;
22603;SDS011;11469;49.024;8.246;2022-12-18T07:11:24;108.13;;;37.40;;
22603;SDS011;11469;49.024;8.246;2022-12-18T07:13:50;120.57;;;40.03;;
22603;SDS011;11469;49.024;8.246;2022-12-18T07:16:16;120.68;;;40.70;;
22603;SDS011;11469;49.024;8.246;2022-12-18T07:18:43;121.57;;;40.22;;
22603;SDS011;11469;49.024;8.246;2022-12-18T07:21:10;120.22;;;40.00;;
22603;SDS011;11469;49.024;8.246;2022-12-18T07:23:37;127.63;;;41.25;;
22603;SDS011;11469;49.024;8.246;2022-12-18T07:26:03;140.98;;;44.67;;
22603;SDS011;11469;49.024;8.246;2022-12-18T07:28:30;128.63;;;40.97;;
22603;SDS011;11469;49.024;8.246;2022-12-18T07:30:56;145.65;;;44.05;;
22603;SDS011;11469;49.024;8.246;2022-12-18T07:33:22;142.35;;;43.80;;
22603;SDS011;11469;49.024;8.246;2022-12-18T07:35:47;146.25;;;44.40;;
22603;SDS011;11469;49.024;8.246;2022-12-18T07:38:13;133.73;;;41.67;;
22603;SDS011;11469;49.024;8.246;2022-12-18T07:40:38;147.75;;;42.30;;
22603;SDS011;11469;49.024;8.246;2022-12-18T07:43:03;142.55;;;45.70;;
22603;SDS011;11469;49.024;8.246;2022-12-18T07:45:29;147.10;;;46.08;;
22603;SDS011;11469;49.024;8.246;2022-12-18T07:47:54;130.57;;;44.80;;
22603;SDS011;11469;49.024;8.246;2022-12-18T07:50:19;119.82;;;41.58;;
22603;SDS011;11469;49.024;8.246;2022-12-18T07:52:45;139.90;;;46.03;;
22603;SDS011;11469;49.024;8.246;2022-12-18T07:55:10;136.07;;;44.58;;
22603;SDS011;11469;49.024;8.246;2022-12-18T07:57:36;134.55;;;43.10;;
22603;SDS011;11469;49.024;8.246;2022-12-18T08:00:01;136.70;;;46.38;;
22603;SDS011;11469;49.024;8.246;2022-12-18T08:02:29;130.52;;;43.42;;
22603;SDS011;11469;49.024;8.246;2022-12-18T08:04:56;127.90;;;42.72;;
22603;SDS011;11469;49.024;8.246;2022-12-18T08:07:21;139.82;;;45.17;;
22603;SDS011;11469;49.024;8.246;2022-12-18T08:09:47;133.55;;;45.05;;
22603;SDS011;11469;49.024;8.246;2022-12-18T08:12:12;136.38;;;44.33;;
22603;SDS011;11469;49.024;8.246;2022-12-18T08:14:37;135.32;;;45.30;;
22603;SDS011;11469;49.024;8.246;2022-12-18T08:17:03;133.27;;;42.05;;
22603;SDS011;11469;49.024;8.246;2022-12-18T08:19:28;131.40;;;43.78;;
22603;SDS011;11469;49.024;8.246;2022-12-18T08:21:53;131.18;;;44.30;;
22603;SDS011;11469;49.024;8.246;2022-12-18T08:24:19;138.88;;;45.17;;
22603;SDS011;11469;49.024;8.246;2022-12-18T08:26:44;141.63;;;47.28;;
22603;SDS011;11469;49.024;8.246;2022-12-18T08:29:10;129.52;;;46.22;;
22603;SDS011;11469;49.024;8.246;2022-12-18T08:31:35;120.35;;;42.80;;
22603;SDS011;11469;49.024;8.246;2022-12-18T08:34:01;138.55;;;45.72;;
22603;SDS011;11469;49.024;8.246;2022-12-18T08:36:26;126.65;;;42.38;;
22603;SDS011;11469;49.024;8.246;2022-12-18T08:38:52;149.15;;;53.60;;
22603;SDS011;11469;49.024;8.246;2022-12-18T08:41:17;128.70;;;47.08;;
22603;SDS011;11469;49.024;8.246;2022-12-18T08:43:44;124.03;;;43.75;;
22603;SDS011;11469;49.024;8.246;2022-12-18T08:46:31;124.88;;;42.78;;
22603;SDS011;11469;49.024;8.246;2022-12-18T08:48:59;137.55;;;47.60;;
22603;SDS011;11469;49.024;8.246;2022-12-18T08:51:24;131.35;;;43.47;;
22603;SDS011;11469;49.024;8.246;2022-12-18T08:53:50;132.60;;;43.70;;
22603;SDS011;11469;49.024;8.246;2022-12-18T08:56:15;126.00;;;44.30;;
22603;SDS011;11469;49.024;8.246;2022-12-18T08:58:41;122.80;;;41.85;;
22603;SDS011;11469;49.024;8.246;2022-12-18T09:01:07;128.18;;;43.15;;
22603;SDS011;11469;49.024;8.246;2022-12-18T09:03:34;133.88;;;45.70;;
22603;SDS011;11469;49.024;8.246;2022-12-18T09:06:00;127.57;;;43.08;;
22603;SDS011;11469;49.024;8.246;2022-12-18T09:08:27;140.27;;;49.22;;
22603;SDS011;11469;49.024;8.246;2022-12-18T09:10:53;126.25;;;45.22;;
22603;SDS011;11469;49.024;8.246;2022-12-18T09:13:19;138.25;;;48.22;;
22603;SDS011;11469;49.024;8.246;2022-12-18T09:15:45;143.40;;;51.08;;
22603;SDS011;11469;49.024;8.246;2022-12-18T09:18:13;139.50;;;47.67;;
22603;SDS011;11469;49.024;8.246;2022-12-18T09:20:39;143.35;;;46.80;;
22603;SDS011;11469;49.024;8.246;2022-12-18T09:23:05;132.73;;;47.10;;
22603;SDS011;11469;49.024;8.246;2022-12-18T09:25:31;149.23;;;49.75;;
22603;SDS011;11469;49.024;8.246;2022-12-18T09:28:16;139.82;;;47.15;;
22603;SDS011;11469;49.024;8.246;2022-12-18T09:30:43;142.50;;;50.38;;
22603;SDS011;11469;49.024;8.246;2022-12-18T09:33:13;139.20;;;50.78;;
22603;SDS011;11469;49.024;8.246;2022-12-18T09:35:39;165.60;;;54.05;;
22603;SDS011;11469;49.024;8.246;2022-12-18T09:38:06;138.80;;;47.25;;
22603;SDS011;11469;49.024;8.246;2022-12-18T09:40:36;138.10;;;50.95;;
22603;SDS011;11469;49.024;8.246;2022-12-18T09:43:09;161.38;;;52.38;;
22603;SDS011;11469;49.024;8.246;2022-12-18T09:45:42;144.95;;;49.95;;
22603;SDS011;11469;49.024;8.246;2022-12-18T09:48:24;166.60;;;60.38;;
22603;SDS011;11469;49.024;8.246;2022-12-18T09:50:54;147.10;;;53.85;;
22603;SDS011;11469;49.024;8.246;2022-12-18T09:53:24;145.75;;;50.53;;
22603;SDS011;11469;49.024;8.246;2022-12-18T09:55:53;141.88;;;48.70;;
22603;SDS011;11469;49.024;8.246;2022-12-18T09:58:43;137.38;;;46.78;;
22603;SDS011;11469;49.024;8.246;2022-12-18T10:01:17;137.52;;;46.47;;
22603;SDS011;11469;49.024;8.246;2022-12-18T10:03:47;138.93;;;46.15;;
22603;SDS011;11469;49.024;8.246;2022-12-18T10:06:15;143.18;;;48.95;;
22603;SDS011;11469;49.024;8.246;2022-12-18T10:08:54;141.95;;;50.65;;
22603;SDS011;11469;49.024;8.246;2022-12-18T10:14:19;141.55;;;47.05;;
22603;SDS011;11469;49.024;8.246;2022-12-18T10:22:03;134.95;;;46.97;;
22603;SDS011;11469;49.024;8.246;2022-12-18T10:27:29;170.98;;;54.28;;
22603;SDS011;11469;49.024;8.246;2022-12-18T10:29:55;143.32;;;48.15;;
22603;SDS011;11469;49.024;8.246;2022-12-18T10:32:23;131.38;;;45.97;;
22603;SDS011;11469;49.024;8.246;2022-12-18T10:34:51;123.05;;;44.42;;
22603;SDS011;11469;49.024;8.246;2022-12-18T10:37:20;138.30;;;45.65;;
22603;SDS011;11469;49.024;8.246;2022-12-18T10:40:10;146.63;;;52.78;;
22603;SDS011;11469;49.024;8.246;2022-12-18T10:42:34;131.75;;;44.20;;
22603;SDS011;11469;49.024;8.246;2022-12-18T10:45:01;139.55;;;47.35;;
22603;SDS011;11469;49.024;8.246;2022-12-18T10:47:31;140.48;;;48.53;;
22603;SDS011;11469;49.024;8.246;2022-12-18T10:49:58;146.90;;;54.28;;
22603;SDS011;11469;49.024;8.246;2022-12-18T10:52:24;137.50;;;50.00;;
22603;SDS011;11469;49.024;8.246;2022-12-18T10:54:57;124.85;;;43.83;;
22603;SDS011;11469;49.024;8.246;2022-12-18T10:57:39;125.05;;;43.20;;
22603;SDS011;11469;49.024;8.246;2022-12-18T11:02:50;102.40;;;32.92;;
22603;SDS011;11469;49.024;8.246;2022-12-18T11:07:48;126.95;;;42.90;;
22603;SDS011;11469;49.024;8.246;2022-12-18T11:10:18;130.57;;;44.97;;
22603;SDS011;11469;49.024;8.246;2022-12-18T11:12:45;132.68;;;48.63;;
22603;SDS011;11469;49.024;8.246;2022-12-18T11:15:30;127.50;;;43.33;;
22603;SDS011;11469;49.024;8.246;2022-12-18T11:17:55;126.40;;;43.58;;
22603;SDS011;11469;49.024;8.246;2022-12-18T11:23:00;159.27;;;51.70;;
22603;SDS011;11469;49.024;8.246;2022-12-18T11:25:27;138.05;;;46.55;;
22603;SDS011;11469;49.024;8.246;2022-12-18T11:27:58;121.00;;;44.38;;
22603;SDS011;11469;49.024;8.246;2022-12-18T11:30:32;114.72;;;39.83;;
22603;SDS011;11469;49.024;8.246;2022-12-18T11:33:09;106.78;;;35.38;;
22603;SDS011;11469;49.024;8.246;2022-12-18T11:40:38;108.45;;;37.53;;
22603;SDS011;11469;49.024;8.246;2022-12-18T11:43:14;109.07;;;38.05;;
22603;SDS011;11469;49.024;8.246;2022-12-18T11:45:48;112.28;;;38.35;;
22603;SDS011;11469;49.024;8.246;2022-12-18T11:48:22;112.60;;;40.30;;
22603;SDS011;11469;49.024;8.246;2022-12-18T11:50:52;128.20;;;43.60;;
22603;SDS011;11469;49.024;8.246;2022-12-18T11:53:20;120.13;;;41.67;;
22603;SDS011;11469;49.024;8.246;2022-12-18T11:56:05;113.03;;;38.67;;
22603;SDS011;11469;49.024;8.246;2022-12-18T12:01:51;111.75;;;40.05;;
22603;SDS011;11469;49.024;8.246;2022-12-18T12:20:13;104.00;;;36.55;;
22603;SDS011;11469;49.024;8.246;2022-12-18T12:22:50;118.28;;;41.13;;
22603;SDS011;11469;49.024;8.246;2022-12-18T12:31:22;106.88;;;39.50;;
22603;SDS011;11469;49.024;8.246;2022-12-18T12:37:17;91.85;;;30.98;;
22603;SDS011;11469;49.024;8.246;2022-12-18T12:39:50;112.97;;;41.63;;
22603;SDS011;11469;49.024;8.246;2022-12-18T12:42:26;100.80;;;36.78;;
22603;SDS011;11469;49.024;8.246;2022-12-18T12:45:40;109.65;;;39.25;;
22603;SDS011;11469;49.024;8.246;2022-12-18T12:53:48;105.13;;;37.42;;
22603;SDS011;11469;49.024;8.246;2022-12-18T12:56:16;114.80;;;40.35;;
22603;SDS011;11469;49.024;8.246;2022-12-18T13:06:37;120.50;;;42.15;;
22603;SDS011;11469;49.024;8.246;2022-12-18T13:09:18;115.05;;;41.67;;
22603;SDS011;11469;49.024;8.246;2022-12-18T13:11:44;145.65;;;55.10;;
22603;SDS011;11469;49.024;8.246;2022-12-18T13:14:33;113.43;;;40.97;;
22603;SDS011;11469;49.024;8.246;2022-12-18T13:20:07;123.73;;;42.33;;
22603;SDS011;11469;49.024;8.246;2022-12-18T13:22:37;111.25;;;40.38;;
22603;SDS011;11469;49.024;8.246;2022-12-18T13:25:29;124.80;;;47.30;;
22603;SDS011;11469;49.024;8.246;2022-12-18T13:28:08;121.68;;;43.47;;
22603;SDS011;11469;49.024;8.246;2022-12-18T13:30:58;97.43;;;33.60;;
22603;SDS011;11469;49.024;8.246;2022-12-18T13:38:39;112.75;;;41.08;;
22603;SDS011;11469;49.024;8.246;2022-12-18T13:43:43;104.40;;;38.78;;
22603;SDS011;11469;49.024;8.246;2022-12-18T13:51:39;116.90;;;41.05;;
22603;SDS011;11469;49.024;8.246;2022-12-18T13:59:11;103.90;;;38.15;;
22603;SDS011;11469;49.024;8.246;2022-12-18T14:01:44;99.57;;;37.20;;
22603;SDS011;11469;49.024;8.246;2022-12-18T14:06:55;107.40;;;40.65;;
22603;SDS011;11469;49.024;8.246;2022-12-18T14:09:24;100.10;;;36.75;;
22603;SDS011;11469;49.024;8.246;2022-12-18T14:11:52;101.30;;;38.70;;
22603;SDS011;11469;49.024;8.246;2022-12-18T14:14:40;103.70;;;37.45;;
22603;SDS011;11469;49.024;8.246;2022-12-18T14:17:10;103.90;;;39.28;;
22603;SDS011;11469;49.024;8.246;2022-12-18T14:19:36;100.85;;;38.22;;
22603;SDS011;11469;49.024;8.246;2022-12-18T14:22:09;96.22;;;35.78;;
22603;SDS011;11469;49.024;8.246;2022-12-18T14:24:39;98.57;;;38.53;;
22603;SDS011;11469;49.024;8.246;2022-12-18T14:27:24;109.32;;;39.45;;
22603;SDS011;11469;49.024;8.246;2022-12-18T14:29:50;99.50;;;38.58;;
22603;SDS011;11469;49.024;8.246;2022-12-18T14:32:17;97.10;;;36.95;;
22603;SDS011;11469;49.024;8.246;2022-12-18T14:34:45;87.53;;;36.25;;
22603;SDS011;11469;49.024;8.246;2022-12-18T14:37:11;83.60;;;32.70;;
22603;SDS011;11469;49.024;8.246;2022-12-18T14:39:51;109.00;;;40.67;;
22603;SDS011;11469;49.024;8.246;2022-12-18T14:42:24;105.53;;;41.35;;
22603;SDS011;11469;49.024;8.246;2022-12-18T14:45:31;109.47;;;38.63;;
22603;SDS011;11469;49.024;8.246;2022-12-18T14:47:56;102.82;;;40.08;;
22603;SDS011;11469;49.024;8.246;2022-12-18T14:50:22;104.05;;;39.22;;
22603;SDS011;11469;49.024;8.246;2022-12-18T14:52:48;101.78;;;39.58;;
22603;SDS011;11469;49.024;8.246;2022-12-18T14:55:17;105.95;;;41.25;;
22603;SDS011;11469;49.024;8.246;2022-12-18T14:57:44;107.10;;;40.05;;
22603;SDS011;11469;49.024;8.246;2022-12-18T15:00:15;109.38;;;42.15;;
22603;SDS011;11469;49.024;8.246;2022-12-18T15:02:43;100.07;;;40.63;;
22603;SDS011;11469;49.024;8.246;2022-12-18T15:07:42;112.43;;;41.58;;
22603;SDS011;11469;49.024;8.246;2022-12-18T15:12:48;102.55;;;40.13;;
22603;SDS011;11469;49.024;8.246;2022-12-18T15:20:43;111.85;;;41.78;;
22603;SDS011;11469;49.024;8.246;2022-12-18T15:25:58;124.82;;;45.90;;
22603;SDS011;11469;49.024;8.246;2022-12-18T15:28:28;114.03;;;45.70;;
22603;SDS011;11469;49.024;8.246;2022-12-18T15:31:03;137.65;;;52.05;;
22603;SDS011;11469;49.024;8.246;2022-12-18T15:36:17;133.38;;;51.45;;
22603;SDS011;11469;49.024;8.246;2022-12-18T15:38:46;131.60;;;50.72;;
22603;SDS011;11469;49.024;8.246;2022-12-18T15:41:13;145.02;;;52.72;;
22603;SDS011;11469;49.024;8.246;2022-12-18T15:43:40;125.03;;;48.22;;
22603;SDS011;11469;49.024;8.246;2022-12-18T15:46:10;145.73;;;51.80;;
22603;SDS011;11469;49.024;8.246;2022-12-18T15:48:42;124.07;;;44.78;;
22603;SDS011;11469;49.024;8.246;2022-12-18T15:51:11;127.25;;;44.50;;
22603;SDS011;11469;49.024;8.246;2022-12-18T15:53:40;122.47;;;45.97;;
22603;SDS011;11469;49.024;8.246;2022-12-18T15:56:09;128.73;;;49.17;;
22603;SDS011;11469;49.024;8.246;2022-12-18T15:58:54;110.90;;;44.00;;
22603;SDS011;11469;49.024;8.246;2022-12-18T16:01:20;112.18;;;42.83;;
22603;SDS011;11469;49.024;8.246;2022-12-18T16:03:47;116.07;;;43.50;;
22603;SDS011;11469;49.024;8.246;2022-12-18T16:06:13;114.93;;;43.42;;
22603;SDS011;11469;49.024;8.246;2022-12-18T16:08:38;121.70;;;42.47;;
22603;SDS011;11469;49.024;8.246;2022-12-18T16:11:03;108.07;;;40.78;;
22603;SDS011;11469;49.024;8.246;2022-12-18T16:13:30;116.75;;;42.33;;
22603;SDS011;11469;49.024;8.246;2022-12-18T16:15:55;104.40;;;41.15;;
22603;SDS011;11469;49.024;8.246;2022-12-18T16:18:21;116.85;;;43.55;;
22603;SDS011;11469;49.024;8.246;2022-12-18T16:20:46;115.72;;;42.13;;
22603;SDS011;11469;49.024;8.246;2022-12-18T16:23:12;105.68;;;41.65;;
22603;SDS011;11469;49.024;8.246;2022-12-18T16:25:37;111.25;;;40.58;;
22603;SDS011;11469;49.024;8.246;2022-12-18T16:28:02;109.80;;;39.72;;